createdAt,value
2022-12-09T00:00:09.298Z,20.03
2022-12-09T00:02:37.672Z,21.40
2022-12-09T00:05:06.705Z,22.07
2022-12-09T00:07:37.612Z,21.50
2022-12-09T00:10:07.375Z,22.10
2022-12-09T00:12:35.893Z,21.00
2022-12-09T00:15:04.467Z,21.90
2022-12-09T00:17:32.524Z,21.97
2022-12-09T00:20:00.699Z,21.53
2022-12-09T00:22:29.463Z,20.80
2022-12-09T00:24:58.898Z,21.47
2022-12-09T00:27:27.256Z,20.97
2022-12-09T00:29:55.298Z,21.53
2022-12-09T00:32:23.679Z,20.33
2022-12-09T00:34:51.825Z,20.50
2022-12-09T00:37:20.156Z,21.03
2022-12-09T00:39:48.404Z,20.67
2022-12-09T00:42:17.821Z,21.03
2022-12-09T00:44:45.878Z,20.53
2022-12-09T00:47:14.076Z,20.27
2022-12-09T00:49:42.362Z,20.80
2022-12-09T00:52:10.433Z,21.27
2022-12-09T00:54:38.547Z,23.60
2022-12-09T00:57:07.187Z,23.70
2022-12-09T00:59:36.607Z,21.67
2022-12-09T01:02:04.696Z,22.17
2022-12-09T01:04:33.189Z,22.47
2022-12-09T01:07:01.988Z,22.77
2022-12-09T01:09:30.187Z,21.83
2022-12-09T01:11:58.495Z,22.07
2022-12-09T01:14:26.555Z,20.33
2022-12-09T01:16:56.438Z,21.67
2022-12-09T01:19:24.635Z,23.27
2022-12-09T01:21:55.522Z,22.10
2022-12-09T01:24:23.757Z,22.53
2022-12-09T01:26:51.891Z,20.90
2022-12-09T01:29:20.131Z,21.60
2022-12-09T01:31:48.330Z,19.57
2022-12-09T01:34:18.139Z,19.00
2022-12-09T01:36:47.872Z,18.80
2022-12-09T01:39:16.780Z,21.17
2022-12-09T01:41:45.860Z,19.23
2022-12-09T01:44:22.599Z,19.23
2022-12-09T01:46:56.812Z,18.77
2022-12-09T01:49:32.332Z,18.70
2022-12-09T01:52:06.931Z,20.10
2022-12-09T01:54:35.856Z,20.10
2022-12-09T01:57:04.200Z,19.67
2022-12-09T01:59:32.839Z,18.83
2022-12-09T02:02:03.406Z,18.87
2022-12-09T02:04:37.899Z,19.47
2022-12-09T02:07:09.977Z,19.70
2022-12-09T02:09:38.227Z,19.83
2022-12-09T02:12:13.455Z,19.47
2022-12-09T02:14:46.128Z,21.77
2022-12-09T02:17:28.920Z,21.67
2022-12-09T02:20:06.158Z,23.33
2022-12-09T02:22:39.770Z,21.57
2022-12-09T02:25:22.581Z,20.63
2022-12-09T02:28:00.915Z,23.40
2022-12-09T02:30:34.610Z,27.60
2022-12-09T02:33:27.560Z,24.53
2022-12-09T02:35:59.798Z,25.20
2022-12-09T02:38:30.121Z,24.10
2022-12-09T02:41:02.264Z,25.57
2022-12-09T02:43:35.694Z,25.60
2022-12-09T02:46:07.260Z,22.83
2022-12-09T02:48:40.329Z,22.67
2022-12-09T02:51:12.388Z,22.47
2022-12-09T02:53:41.515Z,23.03
2022-12-09T02:56:10.530Z,21.53
2022-12-09T02:58:38.667Z,21.20
2022-12-09T03:06:44.981Z,19.60
2022-12-09T03:09:17.880Z,19.27
2022-12-09T03:11:48.809Z,19.43
2022-12-09T03:14:22.625Z,19.03
2022-12-09T03:16:55.389Z,21.17
2022-12-09T03:19:29.137Z,19.53
2022-12-09T03:22:02.333Z,20.83
2022-12-09T03:24:34.175Z,21.33
2022-12-09T03:27:07.055Z,22.73
2022-12-09T03:29:39.387Z,23.50
2022-12-09T03:32:09.104Z,20.90
2022-12-09T03:34:42.585Z,21.27
2022-12-09T03:37:16.063Z,23.30
2022-12-09T03:39:45.662Z,22.30
2022-12-09T03:42:20.123Z,23.50
2022-12-09T03:44:52.380Z,23.70
2022-12-09T03:47:21.139Z,22.93
2022-12-09T03:49:49.609Z,22.10
2022-12-09T03:52:23.965Z,22.83
2022-12-09T03:54:57.671Z,22.90
2022-12-09T03:57:26.669Z,23.63
2022-12-09T03:59:59.365Z,22.20
2022-12-09T04:02:28.350Z,22.63
2022-12-09T04:04:57.017Z,22.27
2022-12-09T04:07:26.684Z,21.47
2022-12-09T04:09:54.843Z,22.00
2022-12-09T04:12:23.068Z,22.67
2022-12-09T04:14:51.329Z,22.03
2022-12-09T04:17:19.650Z,22.40
2022-12-09T04:19:48.017Z,22.80
2022-12-09T04:22:16.344Z,21.73
2022-12-09T04:24:45.841Z,22.23
2022-12-09T04:27:13.978Z,21.90
2022-12-09T04:29:42.276Z,21.53
2022-12-09T04:32:10.541Z,23.33
2022-12-09T04:34:38.760Z,19.73
2022-12-09T04:37:06.813Z,21.37
2022-12-09T04:39:34.894Z,20.67
2022-12-09T04:42:04.603Z,20.43
2022-12-09T04:44:32.816Z,19.80
2022-12-09T04:47:01.273Z,20.90
2022-12-09T04:49:29.597Z,19.50
2022-12-09T04:51:58.186Z,19.07
2022-12-09T04:54:26.712Z,19.30
2022-12-09T04:56:54.916Z,17.43
2022-12-09T04:59:24.456Z,17.43
2022-12-09T05:01:52.853Z,16.47
2022-12-09T05:04:21.572Z,17.60
2022-12-09T05:06:50.116Z,17.57
2022-12-09T05:09:19.711Z,17.47
2022-12-09T05:11:47.965Z,17.93
2022-12-09T05:14:16.450Z,17.27
2022-12-09T05:16:46.179Z,16.00
2022-12-09T05:19:14.460Z,16.97
2022-12-09T05:21:44.110Z,17.57
2022-12-09T05:24:12.428Z,17.07
2022-12-09T05:26:41.078Z,16.53
2022-12-09T05:29:09.307Z,18.00
2022-12-09T05:31:37.828Z,18.37
2022-12-09T05:34:07.740Z,16.83
2022-12-09T05:36:36.053Z,16.57
2022-12-09T05:39:04.922Z,19.33
2022-12-09T05:41:33.157Z,20.37
2022-12-09T05:44:01.647Z,18.40
2022-12-09T05:46:29.854Z,18.00
2022-12-09T05:48:58.433Z,18.80
2022-12-09T05:51:30.039Z,18.03
2022-12-09T05:54:01.859Z,19.03
2022-12-09T05:56:30.332Z,19.80
2022-12-09T05:58:59.639Z,18.90
2022-12-09T06:01:28.666Z,18.93
2022-12-09T06:03:57.865Z,17.13
2022-12-09T06:06:30.301Z,18.67
2022-12-09T06:09:00.865Z,19.63
2022-12-09T06:11:30.091Z,18.63
2022-12-09T06:13:58.890Z,17.87
2022-12-09T06:16:27.700Z,18.23
2022-12-09T06:18:56.912Z,17.90
2022-12-09T06:21:25.510Z,18.40
2022-12-09T06:23:55.547Z,17.47
2022-12-09T06:26:25.306Z,17.60
2022-12-09T06:28:54.242Z,17.30
2022-12-09T06:31:23.077Z,18.10
2022-12-09T06:33:57.118Z,15.97
2022-12-09T06:36:27.010Z,16.10
2022-12-09T06:39:00.391Z,18.47
2022-12-09T06:41:31.576Z,17.10
2022-12-09T06:44:00.188Z,16.77
2022-12-09T06:46:29.527Z,17.43
2022-12-09T06:48:58.102Z,15.90
2022-12-09T06:51:27.610Z,17.30
2022-12-09T06:53:57.378Z,15.20
2022-12-09T06:56:25.649Z,16.20
2022-12-09T06:58:54.129Z,15.93
2022-12-09T07:01:24.300Z,16.60
2022-12-09T07:03:54.490Z,16.60
2022-12-09T07:06:27.746Z,17.00
2022-12-09T07:08:59.112Z,17.80
2022-12-09T07:11:27.476Z,18.17
2022-12-09T07:13:56.204Z,17.80
2022-12-09T07:16:25.051Z,19.07
2022-12-09T07:18:54.020Z,18.27
2022-12-09T07:21:24.042Z,19.03
2022-12-09T07:23:52.730Z,18.07
2022-12-09T07:26:22.794Z,18.13
2022-12-09T07:28:51.448Z,20.50
2022-12-09T07:31:21.570Z,19.80
2022-12-09T07:37:41.247Z,18.03
2022-12-09T07:40:09.962Z,18.80
2022-12-09T07:42:39.788Z,19.80
2022-12-09T07:45:09.464Z,19.27
2022-12-09T07:47:38.388Z,20.93
2022-12-09T07:50:08.424Z,18.63
2022-12-09T07:52:36.621Z,18.13
2022-12-09T07:55:06.735Z,18.20
2022-12-09T07:57:38.469Z,18.27
2022-12-09T08:00:10.080Z,18.70
2022-12-09T08:02:38.527Z,19.30
2022-12-09T08:05:08.107Z,19.23
2022-12-09T08:07:43.669Z,19.40
2022-12-09T08:10:13.112Z,19.90
2022-12-09T08:12:41.795Z,19.10
2022-12-09T08:15:12.938Z,20.17
2022-12-09T08:17:41.462Z,19.30
2022-12-09T08:20:11.138Z,17.50
2022-12-09T08:22:39.778Z,20.43
2022-12-09T08:25:08.931Z,18.10
2022-12-09T08:27:38.133Z,18.87
2022-12-09T08:30:08.378Z,19.77
2022-12-09T08:32:38.613Z,20.93
2022-12-09T08:35:08.176Z,19.70
2022-12-09T08:37:36.486Z,20.83
2022-12-09T08:40:05.065Z,18.30
2022-12-09T08:42:33.475Z,20.53
2022-12-09T08:45:02.955Z,19.87
2022-12-09T08:47:31.446Z,19.43
2022-12-09T08:50:01.197Z,18.07
2022-12-09T08:52:31.457Z,16.33
2022-12-09T08:55:01.450Z,15.17
2022-12-09T08:57:29.608Z,15.93
2022-12-09T08:59:57.868Z,17.17
2022-12-09T09:02:26.396Z,16.77
2022-12-09T09:04:54.754Z,18.13
2022-12-09T09:07:24.755Z,17.33
2022-12-09T09:09:53.289Z,17.47
2022-12-09T09:12:22.139Z,17.37
2022-12-09T09:14:50.371Z,17.63
2022-12-09T09:17:18.817Z,15.43
2022-12-09T09:19:47.182Z,14.37
2022-12-09T09:22:15.735Z,15.30
2022-12-09T09:24:45.602Z,14.87
2022-12-09T09:27:14.076Z,14.70
2022-12-09T09:29:42.551Z,13.90
2022-12-09T09:32:10.838Z,14.53
2022-12-09T09:34:39.315Z,15.03
2022-12-09T09:37:07.584Z,13.50
2022-12-09T09:39:35.657Z,13.23
2022-12-09T09:42:09.544Z,13.20
2022-12-09T09:44:41.151Z,13.97
2022-12-09T09:47:18.051Z,14.93
2022-12-09T09:49:54.278Z,15.67
2022-12-09T09:52:24.720Z,14.13
2022-12-09T09:54:53.409Z,14.30
2022-12-09T09:57:29.132Z,13.13
2022-12-09T10:00:14.092Z,13.80
2022-12-09T10:02:58.281Z,13.93
2022-12-09T10:05:31.692Z,13.40
2022-12-09T10:08:14.480Z,13.53
2022-12-09T10:10:48.410Z,14.97
2022-12-09T10:13:31.151Z,15.03
2022-12-09T10:16:07.373Z,13.53
2022-12-09T10:18:40.540Z,14.50
2022-12-09T10:21:17.206Z,12.47
2022-12-09T10:23:47.155Z,15.07
2022-12-09T10:26:23.761Z,13.93
2022-12-09T10:28:59.417Z,13.87
2022-12-09T10:31:29.739Z,13.73
2022-12-09T10:33:58.145Z,14.57
2022-12-09T10:36:33.981Z,13.53
2022-12-09T10:39:05.332Z,13.63
2022-12-09T10:42:01.447Z,13.53
2022-12-09T10:44:31.357Z,15.00
2022-12-09T10:47:02.338Z,15.23
2022-12-09T10:49:31.532Z,14.90
2022-12-09T10:52:00.795Z,15.23
2022-12-09T10:54:35.187Z,15.33
2022-12-09T10:57:09.673Z,14.80
2022-12-09T10:59:40.810Z,13.80
2022-12-09T11:02:21.929Z,14.70
2022-12-09T11:04:51.327Z,13.37
2022-12-09T11:07:22.921Z,13.50
2022-12-09T11:10:04.159Z,13.20
2022-12-09T11:12:40.422Z,13.17
2022-12-09T11:15:27.974Z,12.13
2022-12-09T11:18:01.540Z,14.00
2022-12-09T11:20:31.707Z,12.83
2022-12-09T11:23:07.457Z,11.47
2022-12-09T11:25:37.879Z,12.80
2022-12-09T11:28:23.020Z,12.80
2022-12-09T11:31:20.448Z,12.53
2022-12-09T11:33:52.481Z,13.20
2022-12-09T11:36:24.505Z,13.20
2022-12-09T11:38:55.287Z,12.90
2022-12-09T11:41:42.849Z,12.07
2022-12-09T11:44:25.789Z,12.13
2022-12-09T11:47:01.409Z,11.50
2022-12-09T11:49:32.043Z,13.17
2022-12-09T11:52:03.936Z,12.70
2022-12-09T11:54:37.200Z,12.47
2022-12-09T11:57:07.853Z,12.77
2022-12-09T11:59:42.992Z,12.37
2022-12-09T12:02:23.258Z,12.47
2022-12-09T12:04:57.082Z,12.37
2022-12-09T12:07:33.576Z,13.27
2022-12-09T12:10:02.452Z,12.90
2022-12-09T12:12:37.728Z,12.17
2022-12-09T12:15:14.982Z,12.90
2022-12-09T12:17:50.837Z,11.23
2022-12-09T12:20:19.216Z,11.63
2022-12-09T12:23:10.656Z,12.53
2022-12-09T12:25:53.730Z,11.87
2022-12-09T12:28:59.007Z,10.77
2022-12-09T12:31:42.151Z,11.30
2022-12-09T12:34:25.351Z,11.20
2022-12-09T12:37:07.694Z,12.53
2022-12-09T12:39:49.018Z,12.50
2022-12-09T12:42:32.944Z,12.47
2022-12-09T12:45:23.661Z,11.50
2022-12-09T12:47:58.117Z,12.27
2022-12-09T12:50:39.899Z,11.40
2022-12-09T12:53:18.437Z,11.30
2022-12-09T12:55:54.961Z,12.23
2022-12-09T12:58:36.973Z,13.03
2022-12-09T13:01:12.905Z,13.03
2022-12-09T13:03:48.909Z,11.70
2022-12-09T13:06:22.237Z,12.30
2022-12-09T13:09:01.358Z,11.87
2022-12-09T13:11:38.624Z,11.13
2022-12-09T13:14:12.685Z,11.90
2022-12-09T13:16:42.333Z,10.67
2022-12-09T13:19:17.541Z,11.93
2022-12-09T13:21:47.508Z,11.17
2022-12-09T13:24:26.811Z,10.13
2022-12-09T13:27:01.234Z,10.17
2022-12-09T13:29:38.026Z,12.63
2022-12-09T13:32:18.771Z,12.57
2022-12-09T13:34:51.537Z,11.83
2022-12-09T13:37:58.317Z,12.77
2022-12-09T13:40:38.976Z,11.40
2022-12-09T13:43:24.751Z,13.37
2022-12-09T13:45:56.021Z,11.33
2022-12-09T13:48:44.911Z,12.03
2022-12-09T13:51:13.916Z,13.17
2022-12-09T13:53:49.647Z,11.17
2022-12-09T13:56:27.315Z,11.07
2022-12-09T13:59:21.678Z,17.90
2022-12-09T14:01:52.540Z,13.23
2022-12-09T14:04:26.842Z,11.20
2022-12-09T14:07:09.716Z,11.57
2022-12-09T14:09:48.294Z,12.27
2022-12-09T14:12:55.112Z,11.43
2022-12-09T14:15:39.058Z,9.77
2022-12-09T14:18:28.556Z,11.03
2022-12-09T14:21:39.315Z,11.33
2022-12-09T14:24:32.517Z,10.37
2022-12-09T14:27:13.770Z,10.90
2022-12-09T14:29:54.564Z,10.20
2022-12-09T14:32:30.709Z,10.60
2022-12-09T14:35:22.411Z,11.17
2022-12-09T14:38:13.991Z,10.40
2022-12-09T14:40:55.936Z,9.90
2022-12-09T14:44:02.811Z,10.23
2022-12-09T14:46:34.027Z,11.23
2022-12-09T14:49:05.975Z,10.77
2022-12-09T14:51:37.697Z,10.40
2022-12-09T14:54:09.154Z,10.57
2022-12-09T14:56:37.521Z,10.67
2022-12-09T14:59:10.161Z,10.87
2022-12-09T15:01:56.131Z,11.00
2022-12-09T15:04:29.975Z,9.33
2022-12-09T15:07:12.206Z,10.07
2022-12-09T15:09:48.230Z,10.50
2022-12-09T15:12:16.886Z,10.50
2022-12-09T15:14:45.840Z,9.83
2022-12-09T15:17:26.265Z,10.53
2022-12-09T15:20:02.015Z,10.00
2022-12-09T15:22:32.771Z,9.43
2022-12-09T15:25:02.387Z,11.07
2022-12-09T15:27:31.503Z,10.20
2022-12-09T15:29:59.745Z,11.37
2022-12-09T15:32:30.825Z,11.87
2022-12-09T15:35:16.174Z,15.07
2022-12-09T15:37:44.772Z,10.50
2022-12-09T15:40:16.970Z,10.70
2022-12-09T15:42:46.999Z,10.07
2022-12-09T15:45:20.538Z,10.63
2022-12-09T15:47:55.545Z,10.70
2022-12-09T15:50:27.096Z,10.63
2022-12-09T15:53:01.121Z,10.17
2022-12-09T15:55:33.699Z,10.87
2022-12-09T15:58:04.151Z,11.23
2022-12-09T16:00:32.335Z,9.97
2022-12-09T16:03:01.923Z,10.97
2022-12-09T16:05:30.082Z,11.60
2022-12-09T16:07:59.970Z,11.77
2022-12-09T16:10:29.055Z,11.57
2022-12-09T16:13:08.989Z,11.63
2022-12-09T16:15:53.240Z,12.73
2022-12-09T16:18:25.781Z,12.87
2022-12-09T16:21:16.588Z,24.83
2022-12-09T16:23:48.126Z,28.03
2022-12-09T16:26:19.070Z,27.33
2022-12-09T16:28:55.629Z,27.23
2022-12-09T16:31:23.837Z,23.50
2022-12-09T16:33:53.524Z,19.97
2022-12-09T16:36:25.590Z,15.17
2022-12-09T16:39:34.487Z,16.60
2022-12-09T16:42:03.580Z,14.57
2022-12-09T16:44:34.883Z,16.70
2022-12-09T16:47:14.515Z,16.23
2022-12-09T16:49:46.928Z,16.20
2022-12-09T16:52:17.494Z,16.73
2022-12-09T16:54:47.686Z,16.60
2022-12-09T16:57:17.878Z,17.60
2022-12-09T16:59:46.318Z,17.07
2022-12-09T17:02:20.064Z,16.23
2022-12-09T17:04:50.138Z,16.70
2022-12-09T17:07:18.217Z,17.13
2022-12-09T17:09:46.399Z,16.33
2022-12-09T17:12:14.606Z,15.93
2022-12-09T17:14:42.925Z,16.67
2022-12-09T17:17:10.972Z,22.33
2022-12-09T17:19:41.239Z,16.83
2022-12-09T17:22:10.892Z,15.30
2022-12-09T17:24:39.705Z,16.57
2022-12-09T17:27:07.904Z,15.50
2022-12-09T17:29:36.850Z,16.57
2022-12-09T17:32:05.357Z,16.67
2022-12-09T17:34:33.587Z,17.90
2022-12-09T17:37:01.686Z,17.60
2022-12-09T17:39:31.252Z,19.10
2022-12-09T17:41:59.457Z,18.97
2022-12-09T17:44:27.605Z,18.80
2022-12-09T17:46:56.646Z,18.50
2022-12-09T17:49:24.824Z,16.43
2022-12-09T17:51:53.098Z,16.50
2022-12-09T17:54:21.386Z,18.57
2022-12-09T17:56:50.984Z,18.43
2022-12-09T17:59:19.094Z,18.23
2022-12-09T18:01:47.442Z,18.53
2022-12-09T18:04:16.217Z,19.43
2022-12-09T18:06:45.709Z,20.47
2022-12-09T18:09:15.904Z,19.70
2022-12-09T18:11:44.642Z,20.67
2022-12-09T18:14:14.598Z,20.10
2022-12-09T18:16:43.267Z,20.60
2022-12-09T18:19:15.415Z,21.07
2022-12-09T18:21:43.820Z,19.83
2022-12-09T18:24:12.281Z,19.13
2022-12-09T18:26:42.292Z,18.73
2022-12-09T18:29:11.651Z,19.10
2022-12-09T18:31:43.204Z,20.37
2022-12-09T18:34:11.262Z,21.00
2022-12-09T18:36:39.433Z,22.87
2022-12-09T18:39:07.912Z,21.47
2022-12-09T18:41:36.068Z,23.73
2022-12-09T18:44:07.629Z,27.03
2022-12-09T18:46:37.580Z,26.57
2022-12-09T18:49:18.507Z,20.10
2022-12-09T18:51:47.651Z,19.20
2022-12-09T18:54:18.497Z,19.20
2022-12-09T18:56:47.002Z,19.47
2022-12-09T18:59:15.063Z,19.77
2022-12-09T19:01:46.067Z,21.10
2022-12-09T19:04:17.826Z,20.07
2022-12-09T19:06:49.568Z,20.70
2022-12-09T19:09:19.294Z,24.53
2022-12-09T19:11:48.875Z,24.00
2022-12-09T19:14:18.680Z,20.13
2022-12-09T19:16:47.414Z,19.57
2022-12-09T19:19:18.819Z,20.37
2022-12-09T19:21:47.788Z,19.57
2022-12-09T19:24:19.068Z,19.40
2022-12-09T19:26:47.517Z,20.70
2022-12-09T19:29:17.703Z,20.53
2022-12-09T19:31:47.465Z,19.87
2022-12-09T19:34:21.078Z,19.97
2022-12-09T19:36:50.558Z,20.07
2022-12-09T19:39:20.582Z,19.83
2022-12-09T19:41:49.049Z,19.77
2022-12-09T19:44:37.073Z,19.53
2022-12-09T19:47:07.871Z,18.93
2022-12-09T19:49:37.735Z,19.70
2022-12-09T19:52:07.469Z,21.03
2022-12-09T19:54:35.576Z,19.50
2022-12-09T19:57:03.846Z,21.43
2022-12-09T19:59:32.121Z,19.40
2022-12-09T20:06:09.278Z,19.97
2022-12-09T20:08:37.806Z,18.67
2022-12-09T20:11:07.028Z,20.97
2022-12-09T20:25:28.018Z,20.93
2022-12-09T20:27:56.224Z,21.77
2022-12-09T20:30:24.267Z,21.30
2022-12-09T20:32:52.330Z,22.63
2022-12-09T20:35:20.440Z,21.73
2022-12-09T20:37:48.755Z,21.10
2022-12-09T20:40:16.956Z,20.73
2022-12-09T20:42:46.374Z,18.97
2022-12-09T20:45:14.422Z,20.20
2022-12-09T20:47:42.557Z,20.03
2022-12-09T20:50:11.231Z,20.57
2022-12-09T20:52:39.628Z,21.50
2022-12-09T20:55:08.654Z,19.87
2022-12-09T20:57:36.716Z,19.77
2022-12-09T21:00:07.347Z,21.43
2022-12-09T21:02:39.738Z,23.07
2022-12-09T21:05:09.456Z,22.07
2022-12-09T21:07:37.631Z,22.70
2022-12-09T21:10:10.020Z,21.77
2022-12-09T21:12:38.283Z,21.87
2022-12-09T21:15:09.019Z,23.43
2022-12-09T21:17:37.046Z,20.80
2022-12-09T21:20:09.381Z,21.73
2022-12-09T21:22:40.402Z,21.00
2022-12-09T21:25:09.713Z,20.70
2022-12-09T21:27:39.975Z,20.50
2022-12-09T21:30:10.974Z,20.83
2022-12-09T21:32:39.932Z,21.30
2022-12-09T21:35:08.983Z,20.63
2022-12-09T21:37:37.204Z,21.23
2022-12-09T21:40:07.484Z,20.43
2022-12-09T21:42:35.804Z,19.93
2022-12-09T21:45:03.962Z,20.30
2022-12-09T21:47:33.555Z,20.60
2022-12-09T21:50:01.630Z,21.43
2022-12-09T21:52:29.639Z,20.33
2022-12-09T21:54:58.126Z,20.67
2022-12-09T21:57:26.243Z,23.33
2022-12-09T21:59:54.523Z,22.00
2022-12-09T22:02:22.620Z,22.13
2022-12-09T22:04:52.082Z,22.50
2022-12-09T22:07:20.163Z,21.30
2022-12-09T22:09:49.754Z,22.53
2022-12-09T22:12:17.790Z,22.13
2022-12-09T22:14:45.983Z,20.73
2022-12-09T22:21:25.142Z,19.70
2022-12-09T22:23:54.906Z,20.30
2022-12-09T22:26:23.578Z,19.90
2022-12-09T22:28:52.458Z,18.93
2022-12-09T22:31:22.482Z,19.80
2022-12-09T22:33:52.361Z,20.33
2022-12-09T22:36:22.849Z,19.60
2022-12-09T22:38:51.285Z,20.43
2022-12-09T22:41:22.073Z,20.40
2022-12-09T22:43:50.736Z,20.57
2022-12-09T22:46:20.862Z,19.10
2022-12-09T22:48:49.959Z,20.33
2022-12-09T22:51:20.864Z,21.27
2022-12-09T22:53:51.369Z,20.40
2022-12-09T22:56:19.984Z,20.57
2022-12-09T22:58:48.232Z,20.60
2022-12-09T23:01:18.540Z,20.07
2022-12-09T23:03:47.039Z,19.97
2022-12-09T23:06:15.554Z,18.97
2022-12-09T23:08:45.631Z,21.20
2022-12-09T23:11:16.763Z,20.37
2022-12-09T23:13:45.332Z,19.47
2022-12-09T23:16:15.787Z,22.47
2022-12-09T23:18:46.014Z,22.47
2022-12-09T23:21:16.457Z,21.20
2022-12-09T23:23:44.937Z,22.67
2022-12-09T23:26:19.427Z,21.67
2022-12-09T23:28:49.269Z,21.23
2022-12-09T23:31:20.376Z,21.93
2022-12-09T23:33:49.957Z,21.37
2022-12-09T23:36:20.701Z,20.77
2022-12-09T23:38:49.281Z,21.97
2022-12-09T23:41:20.668Z,20.73
2022-12-09T23:43:49.892Z,22.53
2022-12-09T23:46:20.163Z,21.97
2022-12-09T23:48:49.547Z,20.60
2022-12-09T23:51:19.083Z,21.60
2022-12-09T23:53:49.389Z,21.20
2022-12-09T23:56:20.465Z,19.83
2022-12-09T23:58:49.393Z,20.07
